Darrington, WA (98241)

10:54 AM PDT die 28o April, anno 2017 (GMT -0700)
Glacier View Internet | | Change Station

Elev 549 ft 48.25 °N, 121.61 °W | Updated 9 minutes ago

Aequaliter Nubila
Aequaliter Nubila
51.4 °F
Feels Like 51.4 °F
N
1.0
Ventus Variabilis Ventus from Magis Zephyrus quam Auster
Gusts 5.0 mph

Hodie
High -- | Low -- °F
--% Chance of Precip.
Yesterday
High -- | Low -- °F
Precip. -- in
Pressio 30.36 in
Visibilitas 10.0 milia passuum
Clouds Few 2100 ft
Nubes Dispersae 3600 ft
Frigus in quo Ros apparet 43 °F
Umor 73%
Rainfall 0.00 in
Snow Depth Not available.
5:51 AM 8:16 PM
Waxing Crescent, 7% visible
METAR KAWO 281735Z AUTO 00000KT 10SM FEW021 SCT036 10/03 A3036 RMK AO1
Pressio 30.36 in
Visibilitas 10.0 milia passuum
Clouds Few 2100 ft
Nubes Dispersae 3600 ft
Frigus in quo Ros apparet 43 °F
Umor 73%
Rainfall 0.00 in
Snow Depth Not available.
5:51 AM 8:16 PM
Waxing Crescent, 7% visible
METAR KAWO 281735Z AUTO 00000KT 10SM FEW021 SCT036 10/03 A3036 RMK AO1

Get Severe Weather Alerts

Thanks for signing up!

Be on the lookout for a verification email in your inbox.

You'll start receiving the daily forecast at 8 AM.

×

10-Day Weather Forecast

Almanac

Astronomy

Apr. 28, 2017 Rise Set
Actual Time
Civil Twilight
Nautical Twilight
Astronomical Twilight
Moon
Length Of Visible Light
Length of Day
Tomorrow will be .
, % of the Moon is Illuminated

Today's Extremes

State Highs State Lows

Community

WunderPhotos

WunderBlog® & News

Nearby

Air Quality

  Air Quality AQ Index Pollutant
Not available.

Snow Depth

Station Depth Elevation

Earthquake Activity

City Distance Mag. Time & Date
Minimum magnitude displayed is 2.5.

Coastal Water Temperatures

Locus Calor

Stations

Nearby Weather Stations

Station Location Temp Frigus Venti Frigus in quo Ros apparet Umor Ventus Precip. Elev Renovata Type
                   

Watches & Warnings

There are currently no watches in effect.